Time;durP1;ratioP1;P1;durP2;ratioP2;P2;SDS_P1;SDS_P2;PMS_P1;PMS_P2;Temp;Humidity;BMP_temperature;BMP_pressure;BME280_temperature;BME280_humidity;BME280_pressure;Samples;Min_cycle;Max_cycle;Signal;HPM_P1;HPM_P2
2022/05/10 00:02:00;;;;;;;3.85;2.72;;;24.40;43.60;;;;;;6282824;27;81810;-64
2022/05/10 00:05:00;;;;;;;3.80;2.88;;;24.40;43.60;;;;;;6283234;27;80675;-64
2022/05/10 00:08:01;;;;;;;5.90;3.00;;;24.40;43.60;;;;;;6283508;27;80962;-64
2022/05/10 00:11:01;;;;;;;6.18;2.97;;;24.40;43.60;;;;;;6277162;27;80622;-64
2022/05/10 00:14:02;;;;;;;4.88;2.90;;;24.40;43.70;;;;;;6281362;27;80506;-64
2022/05/10 00:17:02;;;;;;;4.72;2.90;;;24.40;43.70;;;;;;6282984;27;80368;-63
2022/05/10 00:20:03;;;;;;;5.78;2.97;;;24.40;43.70;;;;;;6282816;27;80407;-64
2022/05/10 00:23:03;;;;;;;4.68;3.25;;;24.40;43.70;;;;;;6282681;27;80468;-64
2022/05/10 00:26:04;;;;;;;6.35;2.80;;;24.40;43.70;;;;;;6282906;27;80617;-64
2022/05/10 00:29:05;;;;;;;6.40;3.20;;;24.40;43.70;;;;;;6275353;27;80316;-64
2022/05/10 00:32:05;;;;;;;5.45;2.63;;;24.40;43.70;;;;;;6282353;27;82151;-65
2022/05/10 00:35:06;;;;;;;6.05;3.10;;;24.40;43.60;;;;;;6282871;27;80773;-65
2022/05/10 00:38:08;;;;;;;6.28;3.30;;;24.40;43.80;;;;;;6282350;27;80424;-64
2022/05/10 00:41:08;;;;;;;6.13;3.05;;;24.40;43.80;;;;;;6280784;27;83096;-64
2022/05/10 00:44:10;;;;;;;5.10;2.75;;;24.40;44.10;;;;;;6280672;27;83478;-64
2022/05/10 00:47:11;;;;;;;5.03;2.85;;;24.40;44.40;;;;;;6282832;27;81436;-64
2022/05/10 00:50:11;;;;;;;3.55;2.33;;;24.40;44.20;;;;;;6282777;27;80912;-64
2022/05/10 00:53:12;;;;;;;5.15;2.97;;;24.40;44.10;;;;;;6280975;27;81389;-64
2022/05/10 00:56:12;;;;;;;4.20;2.45;;;24.40;44.10;;;;;;6282016;27;80761;-64
2022/05/10 00:59:13;;;;;;;5.72;2.67;;;24.40;44.10;;;;;;6282232;27;80257;-64
2022/05/10 01:02:14;;;;;;;5.45;3.03;;;24.40;44.10;;;;;;6281977;27;80183;-65
2022/05/10 01:05:14;;;;;;;3.33;2.60;;;24.40;44.00;;;;;;6282078;27;80730;-65
2022/05/10 01:08:15;;;;;;;4.22;2.95;;;24.40;44.00;;;;;;6282333;27;80354;-64
2022/05/10 01:11:15;;;;;;;5.72;3.38;;;24.40;44.00;;;;;;6281805;27;80477;-65
2022/05/10 01:14:16;;;;;;;4.72;2.55;;;24.40;44.00;;;;;;6281277;27;81361;-64
2022/05/10 01:17:16;;;;;;;3.55;2.75;;;24.40;43.90;;;;;;6277346;27;80489;-65
2022/05/10 01:20:17;;;;;;;6.10;3.22;;;24.40;43.90;;;;;;6282486;27;80913;-65
2022/05/10 01:23:17;;;;;;;4.40;2.72;;;24.40;44.60;;;;;;6282852;27;80486;-65
2022/05/10 01:26:18;;;;;;;6.40;3.00;;;24.40;43.90;;;;;;6286431;27;80385;-64
2022/05/10 01:29:19;;;;;;;4.40;2.80;;;24.40;44.00;;;;;;6286133;27;80390;-63
2022/05/10 01:35:39;;;;;;;4.68;3.30;;;24.40;44.00;;;;;;6286052;27;80620;-64
2022/05/10 01:38:39;;;;;;;5.63;3.35;;;24.40;44.00;;;;;;6285945;27;80896;-64
2022/05/10 01:41:40;;;;;;;4.72;2.90;;;24.40;43.90;;;;;;6285848;27;80315;-65
2022/05/10 01:44:40;;;;;;;3.67;2.85;;;24.40;43.90;;;;;;6283791;27;80341;-65
2022/05/10 01:47:41;;;;;;;3.83;2.60;;;24.40;44.00;;;;;;6283588;27;87485;-65
2022/05/10 01:50:41;;;;;;;4.50;2.67;;;24.40;44.00;;;;;;6285806;27;81574;-63
2022/05/10 01:53:43;;;;;;;3.50;2.65;;;24.40;43.90;;;;;;6285596;27;81580;-66
2022/05/10 01:56:43;;;;;;;5.68;2.50;;;24.30;43.90;;;;;;6283486;27;80373;-65
2022/05/10 01:59:44;;;;;;;4.60;3.00;;;24.40;43.80;;;;;;6280930;27;80872;-64
2022/05/10 02:02:45;;;;;;;4.20;2.80;;;24.30;43.80;;;;;;6285456;27;80773;-64
2022/05/10 02:05:45;;;;;;;4.00;2.50;;;24.40;43.90;;;;;;6285651;27;80487;-63
2022/05/10 02:08:46;;;;;;;4.63;2.67;;;24.30;43.90;;;;;;6284753;27;81078;-64
2022/05/10 02:11:46;;;;;;;3.97;2.40;;;24.30;43.80;;;;;;6285139;27;86175;-64
2022/05/10 02:14:47;;;;;;;4.32;2.53;;;24.30;43.90;;;;;;6266999;27;80420;-64
2022/05/10 02:17:47;;;;;;;5.85;2.78;;;24.40;44.00;;;;;;6272359;27;80501;-64
2022/05/10 02:20:48;;;;;;;2.90;2.25;;;24.30;44.00;;;;;;6284731;27;80387;-64
2022/05/10 02:23:48;;;;;;;4.30;2.85;;;24.30;43.90;;;;;;6285207;27;80313;-64
2022/05/10 02:26:51;;;;;;;5.55;2.60;;;24.30;43.90;;;;;;6284731;27;81071;-64
2022/05/10 02:29:51;;;;;;;3.35;2.55;;;24.40;43.90;;;;;;6285224;27;80357;-64
2022/05/10 02:33:07;;;;;;;4.82;2.47;;;24.30;43.80;;;;;;6285216;27;80287;-63
2022/05/10 02:36:08;;;;;;;5.13;2.92;;;24.30;43.80;;;;;;6283695;27;80014;-64
2022/05/10 02:39:08;;;;;;;3.10;2.67;;;24.40;43.80;;;;;;6281088;27;80370;-64
2022/05/10 02:42:12;;;;;;;4.45;2.55;;;24.30;43.90;;;;;;6284752;27;80486;-64
2022/05/10 02:45:12;;;;;;;7.72;3.20;;;24.30;43.80;;;;;;6283691;27;80042;-63
2022/05/10 02:48:13;;;;;;;4.30;2.83;;;24.40;43.90;;;;;;6279278;27;80680;-66
2022/05/10 02:51:14;;;;;;;5.60;3.03;;;24.40;43.90;;;;;;6284689;27;80787;-67
2022/05/10 02:54:15;;;;;;;4.20;3.00;;;24.30;43.90;;;;;;6282864;27;80493;-65
2022/05/10 02:57:15;;;;;;;4.97;2.53;;;24.30;43.80;;;;;;6283850;27;81057;-66
2022/05/10 03:00:16;;;;;;;3.10;2.55;;;24.30;43.90;;;;;;6284352;27;80590;-66
2022/05/10 03:03:16;;;;;;;3.72;2.65;;;24.30;44.00;;;;;;6284519;27;80397;-64
2022/05/10 03:06:17;;;;;;;6.55;2.92;;;24.40;44.00;;;;;;6284837;27;80811;-64
2022/05/10 03:09:18;;;;;;;4.47;2.65;;;24.30;44.00;;;;;;6284643;27;80775;-64
2022/05/10 03:12:19;;;;;;;4.85;2.70;;;24.30;44.00;;;;;;6282106;27;80882;-64
2022/05/10 03:15:20;;;;;;;5.70;2.90;;;24.30;43.90;;;;;;6279819;27;80418;-64
2022/05/10 03:18:20;;;;;;;4.85;2.65;;;24.30;44.00;;;;;;6285621;27;80282;-66
2022/05/10 03:21:21;;;;;;;3.38;2.35;;;24.30;44.10;;;;;;6273472;27;80633;-64
2022/05/10 03:24:21;;;;;;;4.22;3.13;;;24.30;44.00;;;;;;6283926;27;80628;-63
2022/05/10 03:27:22;;;;;;;3.92;2.60;;;24.30;44.10;;;;;;6274526;27;80917;-63
2022/05/10 03:30:22;;;;;;;4.32;2.85;;;24.30;43.90;;;;;;6268641;27;80611;-64
2022/05/10 03:33:23;;;;;;;4.32;2.97;;;24.30;43.90;;;;;;6264620;27;80422;-64
2022/05/10 03:36:23;;;;;;;6.57;3.25;;;24.30;44.40;;;;;;6276238;27;80861;-64
2022/05/10 03:39:24;;;;;;;3.85;2.60;;;24.30;44.10;;;;;;6283505;27;80296;-66
2022/05/10 03:42:24;;;;;;;5.88;3.15;;;24.30;44.30;;;;;;6271322;27;80413;-66
2022/05/10 03:45:25;;;;;;;6.97;2.92;;;24.30;44.60;;;;;;6280017;27;80747;-66
2022/05/10 03:48:25;;;;;;;8.05;3.53;;;24.30;44.50;;;;;;6283308;27;80134;-67
2022/05/10 03:51:26;;;;;;;5.45;2.85;;;24.30;44.60;;;;;;6283381;27;81044;-64
2022/05/10 03:54:26;;;;;;;5.28;2.97;;;24.30;44.70;;;;;;6283493;27;80797;-63
2022/05/10 03:57:27;;;;;;;4.65;2.95;;;24.30;44.60;;;;;;6282916;27;85856;-64
2022/05/10 04:00:28;;;;;;;7.90;2.95;;;24.40;44.70;;;;;;6283258;27;80772;-64
2022/05/10 04:03:28;;;;;;;6.53;3.33;;;24.40;45.20;;;;;;6282319;27;80927;-63
2022/05/10 04:06:29;;;;;;;8.90;3.22;;;24.40;45.00;;;;;;6257926;27;80583;-63
2022/05/10 04:09:29;;;;;;;5.13;2.88;;;24.40;45.00;;;;;;6274955;27;80548;-62
2022/05/10 04:12:30;;;;;;;2.47;2.00;;;24.40;45.10;;;;;;6281231;27;80732;-64
2022/05/10 04:15:30;;;;;;;19.58;3.70;;;24.40;45.50;;;;;;6280077;27;82164;-64
2022/05/10 04:18:31;;;;;;;4.43;2.72;;;24.40;45.30;;;;;;6282172;27;81179;-64
2022/05/10 04:21:31;;;;;;;5.25;2.75;;;24.40;45.20;;;;;;6276853;27;80479;-63
2022/05/10 04:24:34;;;;;;;6.00;2.63;;;24.40;45.20;;;;;;6282804;27;81850;-63
2022/05/10 04:27:35;;;;;;;5.47;2.47;;;24.40;45.40;;;;;;6271608;27;80630;-63
2022/05/10 04:30:35;;;;;;;4.85;2.83;;;24.30;45.30;;;;;;6282595;27;80484;-63
2022/05/10 04:33:36;;;;;;;4.53;2.55;;;24.40;45.60;;;;;;6282175;27;81021;-63
2022/05/10 04:36:36;;;;;;;5.55;2.97;;;24.40;45.40;;;;;;6282724;27;80688;-63
2022/05/10 04:42:57;;;;;;;7.68;3.03;;;24.40;45.80;;;;;;6277102;27;80461;-69
2022/05/10 04:45:57;;;;;;;3.75;2.50;;;24.40;45.30;;;;;;6282246;27;81351;-68
2022/05/10 04:48:58;;;;;;;5.10;2.80;;;24.40;45.20;;;;;;6281962;27;81491;-63
2022/05/10 04:51:58;;;;;;;5.22;2.58;;;24.40;45.20;;;;;;6282304;27;80354;-63
2022/05/10 04:54:59;;;;;;;11.30;2.97;;;24.40;45.30;;;;;;6281569;27;80582;-63
2022/05/10 04:58:03;;;;;;;9.02;3.20;;;24.40;45.30;;;;;;6282551;27;80864;-67
2022/05/10 05:01:04;;;;;;;7.18;3.05;;;24.40;45.30;;;;;;6286396;27;80536;-64
2022/05/10 05:04:04;;;;;;;10.80;2.70;;;24.40;45.20;;;;;;6286689;27;80387;-61
2022/05/10 05:07:05;;;;;;;5.97;2.90;;;24.40;45.10;;;;;;6285765;27;80885;-63
2022/05/10 05:10:05;;;;;;;11.30;2.72;;;24.40;45.10;;;;;;6286230;27;81358;-64
2022/05/10 05:13:06;;;;;;;9.38;3.08;;;24.40;45.10;;;;;;6284454;27;82147;-63
2022/05/10 05:16:06;;;;;;;5.50;3.00;;;24.40;45.40;;;;;;6269908;27;80396;-63
2022/05/10 05:19:07;;;;;;;9.93;2.92;;;24.40;45.40;;;;;;6286023;27;81424;-63
2022/05/10 05:22:07;;;;;;;11.00;3.00;;;24.50;45.20;;;;;;6285898;27;80582;-63
2022/05/10 05:25:08;;;;;;;6.70;3.00;;;24.50;45.00;;;;;;6284752;27;82055;-63
2022/05/10 05:28:08;;;;;;;14.80;3.22;;;24.50;45.10;;;;;;6275903;27;80401;-64
2022/05/10 05:31:09;;;;;;;5.63;2.78;;;24.50;44.90;;;;;;6285492;27;80357;-63
2022/05/10 05:34:12;;;;;;;9.43;2.38;;;24.50;44.70;;;;;;6285795;27;80649;-64
2022/05/10 05:40:32;;;;;;;3.70;2.20;;;24.50;44.60;;;;;;6264235;27;80332;-66
2022/05/10 05:43:34;;;;;;;6.25;2.83;;;24.50;44.60;;;;;;6280136;27;80426;-74
2022/05/10 05:46:35;;;;;;;8.68;3.67;;;24.40;42.60;;;;;;6278125;27;81881;-67
2022/05/10 05:49:35;;;;;;;6.70;3.13;;;24.30;40.80;;;;;;6272215;27;82087;-67
2022/05/10 05:52:36;;;;;;;6.80;3.33;;;24.10;40.10;;;;;;6282088;27;80605;-67
2022/05/10 05:55:36;;;;;;;9.07;3.55;;;24.10;40.00;;;;;;6265146;27;80600;-66
2022/05/10 05:58:37;;;;;;;9.10;3.00;;;24.10;40.30;;;;;;6259751;27;80439;-66
2022/05/10 06:01:38;;;;;;;8.77;3.53;;;24.00;40.40;;;;;;6270376;27;82303;-67
2022/05/10 06:04:38;;;;;;;5.93;3.22;;;23.90;40.00;;;;;;6276590;27;80845;-68
2022/05/10 06:07:39;;;;;;;4.30;2.95;;;23.90;40.30;;;;;;6286135;27;81435;-67
2022/05/10 06:10:39;;;;;;;5.72;3.35;;;23.90;40.60;;;;;;6284896;27;80941;-68
2022/05/10 06:13:40;;;;;;;9.27;3.65;;;23.90;40.10;;;;;;6281087;27;82344;-67
2022/05/10 06:16:41;;;;;;;7.40;3.60;;;23.90;40.50;;;;;;6285430;27;80393;-67
2022/05/10 06:19:41;;;;;;;7.68;3.10;;;23.90;40.30;;;;;;6285758;27;81476;-67
2022/05/10 06:22:44;;;;;;;9.90;3.22;;;23.80;39.80;;;;;;6285405;27;80588;-76
2022/05/10 06:25:45;;;;;;;5.30;3.50;;;23.80;39.80;;;;;;6276947;27;80412;-69
2022/05/10 06:28:47;;;;;;;7.38;3.92;;;23.80;39.90;;;;;;6274971;27;80333;-67
2022/05/10 06:31:48;;;;;;;5.00;3.22;;;23.80;39.70;;;;;;6276185;27;81449;-68
2022/05/10 06:34:49;;;;;;;4.28;2.90;;;23.70;39.50;;;;;;6285140;27;80462;-68
2022/05/10 06:41:12;;;;;;;6.97;3.25;;;23.70;39.60;;;;;;6284876;27;80364;-67
2022/05/10 06:44:13;;;;;;;11.50;3.90;;;23.70;39.50;;;;;;6284518;27;80508;-68
2022/05/10 06:47:13;;;;;;;12.80;3.85;;;23.70;39.30;;;;;;6285324;27;81029;-67
2022/05/10 06:50:14;;;;;;;9.88;3.53;;;23.70;39.30;;;;;;6284810;27;81727;-67
2022/05/10 06:53:14;;;;;;;5.80;2.90;;;23.60;39.20;;;;;;6283544;27;81442;-67
2022/05/10 06:56:15;;;;;;;6.65;3.22;;;23.70;39.40;;;;;;6283045;27;81468;-67
2022/05/10 06:59:15;;;;;;;5.57;3.05;;;23.70;39.40;;;;;;6284864;27;80639;-68
2022/05/10 07:02:16;;;;;;;9.75;3.13;;;23.70;39.40;;;;;;6284956;27;80849;-67
2022/05/10 07:05:16;;;;;;;7.07;3.20;;;23.70;39.40;;;;;;6283012;27;81876;-68
2022/05/10 07:08:17;;;;;;;5.57;3.40;;;23.70;39.70;;;;;;6284560;27;80555;-66
2022/05/10 07:11:17;;;;;;;6.53;3.17;;;23.70;40.00;;;;;;6284180;27;80165;-68
2022/05/10 07:14:18;;;;;;;8.73;3.30;;;23.70;40.40;;;;;;6283602;27;80210;-67
2022/05/10 07:17:19;;;;;;;6.85;2.90;;;23.70;40.00;;;;;;6284550;27;80317;-66
2022/05/10 07:20:19;;;;;;;11.32;3.28;;;23.70;39.90;;;;;;6283681;27;80580;-68
2022/05/10 07:23:20;;;;;;;5.55;2.85;;;23.70;40.40;;;;;;6283614;27;80369;-67
2022/05/10 07:26:20;;;;;;;4.47;2.60;;;23.70;40.00;;;;;;6283620;27;80459;-67
2022/05/10 07:29:22;;;;;;;7.85;3.65;;;23.70;40.20;;;;;;6284074;27;81206;-67
2022/05/10 07:32:24;;;;;;;6.47;3.10;;;23.70;40.40;;;;;;6283923;27;80228;-67
2022/05/10 07:38:58;;;;;;;7.70;3.10;;;23.70;40.60;;;;;;6274432;27;80622;-67
2022/05/10 07:42:01;;;;;;;7.88;3.10;;;23.70;40.90;;;;;;6269520;27;80168;-67
2022/05/10 07:45:01;;;;;;;8.13;3.53;;;23.70;41.00;;;;;;6273094;27;80547;-67
2022/05/10 07:48:03;;;;;;;8.95;3.40;;;23.70;40.90;;;;;;6268978;27;80191;-68
2022/05/10 07:51:03;;;;;;;8.57;3.65;;;23.80;41.20;;;;;;6272883;27;80735;-67
2022/05/10 07:54:04;;;;;;;7.82;3.20;;;23.80;41.20;;;;;;6262616;27;80652;-68
2022/05/10 07:57:04;;;;;;;8.23;2.90;;;23.90;41.40;;;;;;6267199;27;80500;-65
2022/05/10 08:00:05;;;;;;;8.77;3.33;;;23.90;42.10;;;;;;6283812;27;80458;-69
2022/05/10 08:03:12;;;;;;;9.30;3.40;;;23.90;41.70;;;;;;6283970;27;80347;-68
2022/05/10 08:06:13;;;;;;;7.45;3.13;;;23.90;41.40;;;;;;6265536;27;81275;-68
2022/05/10 08:09:14;;;;;;;5.50;2.95;;;24.00;41.70;;;;;;6266853;27;80930;-68
2022/05/10 08:12:15;;;;;;;6.45;2.63;;;24.00;41.10;;;;;;6272019;27;84659;-73
2022/05/10 08:15:15;;;;;;;4.47;3.17;;;24.00;41.70;;;;;;6266630;27;80122;-74
2022/05/10 08:18:16;;;;;;;6.25;3.63;;;23.90;41.40;;;;;;6264547;27;80482;-72
2022/05/10 08:21:16;;;;;;;7.22;3.97;;;23.90;41.10;;;;;;6262826;27;80413;-75
2022/05/10 08:24:17;;;;;;;7.70;4.13;;;23.80;41.00;;;;;;6275438;27;80676;-75
2022/05/10 08:27:18;;;;;;;8.77;3.22;;;23.80;41.80;;;;;;6269266;27;80463;-74
2022/05/10 08:30:19;;;;;;;7.00;3.88;;;23.80;41.90;;;;;;6264019;27;81465;-76
2022/05/10 08:33:19;;;;;;;10.82;3.88;;;23.90;42.00;;;;;;6261073;27;80984;-74
2022/05/10 08:36:20;;;;;;;10.18;4.45;;;23.90;41.40;;;;;;6263624;27;81389;-74
2022/05/10 08:39:22;;;;;;;12.25;3.67;;;23.90;42.10;;;;;;6256955;27;82258;-73
2022/05/10 08:42:23;;;;;;;9.85;4.20;;;23.90;42.10;;;;;;6262008;27;80444;-75
2022/05/10 08:45:24;;;;;;;9.27;4.07;;;23.90;41.50;;;;;;6262822;27;80373;-75
2022/05/10 08:48:24;;;;;;;11.77;4.25;;;23.90;42.00;;;;;;6263435;27;80385;-76
2022/05/10 08:51:25;;;;;;;8.18;3.97;;;23.90;41.60;;;;;;6273218;27;80435;-76
2022/05/10 08:54:25;;;;;;;7.40;3.30;;;23.80;42.50;;;;;;6271133;27;80618;-72
2022/05/10 08:57:26;;;;;;;9.05;3.55;;;23.90;42.20;;;;;;6278798;27;80434;-71
2022/05/10 09:00:27;;;;;;;5.75;3.13;;;23.80;41.70;;;;;;6283263;27;80741;-72
2022/05/10 09:03:33;;;;;;;9.60;3.35;;;23.90;41.60;;;;;;6280762;27;86049;-72
2022/05/10 09:06:37;;;;;;;12.02;3.45;;;23.80;41.20;;;;;;6283143;27;80177;-71
2022/05/10 09:09:37;;;;;;;9.82;3.75;;;23.80;41.30;;;;;;6282648;27;80518;-73
2022/05/10 09:12:38;;;;;;;9.38;3.38;;;23.80;40.60;;;;;;6282156;27;81358;-70
2022/05/10 09:15:38;;;;;;;4.00;2.60;;;23.70;41.10;;;;;;6282853;27;80382;-71
2022/05/10 09:18:39;;;;;;;8.95;3.45;;;23.80;40.90;;;;;;6279219;27;86244;-78
2022/05/10 09:21:40;;;;;;;10.60;3.25;;;23.80;40.30;;;;;;6283252;27;80227;-75
2022/05/10 09:24:43;;;;;;;6.90;2.70;;;23.80;41.30;;;;;;6277778;27;80633;-75
2022/05/10 09:27:44;;;;;;;5.10;2.92;;;23.90;40.00;;;;;;6263728;27;80369;-72
2022/05/10 09:34:45;;;;;;;6.68;2.90;;;23.70;39.10;;;;;;6273268;27;80480;-73
2022/05/10 09:37:25;;;;;;;10.38;3.13;;;23.90;39.80;;;;;;6279884;27;80541;-72
2022/05/10 09:40:25;;;;;;;5.68;2.90;;;23.90;40.30;;;;;;6275675;27;80395;-70
2022/05/10 09:43:26;;;;;;;8.30;2.85;;;24.00;40.20;;;;;;6282605;27;80876;-71
2022/05/10 09:46:29;;;;;;;3.33;2.40;;;24.00;40.00;;;;;;6279342;27;81043;-71
2022/05/10 09:49:30;;;;;;;3.90;2.40;;;24.10;40.10;;;;;;6285156;27;80447;-68
2022/05/10 09:52:31;;;;;;;7.75;2.85;;;24.00;38.80;;;;;;6284312;27;81227;-69
2022/05/10 09:55:31;;;;;;;5.05;2.58;;;24.00;39.40;;;;;;6286677;27;80361;-69
2022/05/10 09:58:32;;;;;;;5.88;2.15;;;24.00;39.30;;;;;;6286443;27;80496;-68
2022/05/10 10:01:32;;;;;;;6.55;2.80;;;24.00;38.30;;;;;;6285129;27;80431;-67
2022/05/10 10:04:33;;;;;;;5.57;2.60;;;23.90;38.70;;;;;;6286488;27;80388;-68
2022/05/10 10:07:33;;;;;;;5.47;2.30;;;24.00;38.70;;;;;;6267493;27;80972;-68
2022/05/10 10:10:34;;;;;;;10.10;3.00;;;24.10;38.30;;;;;;6282564;27;81702;-69
2022/05/10 10:13:36;;;;;;;5.38;2.15;;;24.10;38.10;;;;;;6281889;27;80484;-70
2022/05/10 10:16:37;;;;;;;5.90;2.60;;;23.90;37.60;;;;;;6284757;27;82140;-70
2022/05/10 10:19:38;;;;;;;5.22;2.60;;;24.00;37.10;;;;;;6285103;27;80408;-67
2022/05/10 10:22:39;;;;;;;3.50;2.20;;;23.90;36.90;;;;;;6285842;27;80857;-71
2022/05/10 10:25:39;;;;;;;5.85;2.97;;;23.90;36.70;;;;;;6282750;27;80888;-68
2022/05/10 10:28:40;;;;;;;5.20;2.25;;;23.90;37.40;;;;;;6280037;27;81443;-68
2022/05/10 10:31:41;;;;;;;4.40;2.42;;;23.90;36.90;;;;;;6286006;27;81426;-74
2022/05/10 10:34:43;;;;;;;4.40;2.33;;;24.00;37.00;;;;;;6285668;27;81620;-67
2022/05/10 10:37:44;;;;;;;5.90;2.45;;;24.00;36.40;;;;;;6285335;27;80263;-66
2022/05/10 10:40:44;;;;;;;4.50;1.92;;;24.00;36.10;;;;;;6274826;27;81686;-66
2022/05/10 10:43:45;;;;;;;5.82;2.50;;;24.00;36.80;;;;;;6284271;27;80553;-66
2022/05/10 10:46:45;;;;;;;5.78;2.55;;;23.90;36.50;;;;;;6285567;27;80867;-66
2022/05/10 10:49:46;;;;;;;5.15;2.38;;;23.90;37.40;;;;;;6284848;27;80396;-69
2022/05/10 10:52:46;;;;;;;3.15;2.30;;;24.00;36.10;;;;;;6285412;27;80799;-69
2022/05/10 10:55:47;;;;;;;4.07;2.20;;;23.90;35.80;;;;;;6284508;27;81025;-68
2022/05/10 10:58:48;;;;;;;6.15;2.75;;;23.80;34.90;;;;;;6285074;27;80118;-69
2022/05/10 11:01:48;;;;;;;3.75;2.25;;;23.80;35.80;;;;;;6285422;27;80633;-70
2022/05/10 11:04:49;;;;;;;6.18;2.42;;;23.90;35.40;;;;;;6273662;27;80319;-67
2022/05/10 11:07:49;;;;;;;6.35;2.63;;;23.90;35.30;;;;;;6280330;27;81988;-72
2022/05/10 11:10:50;;;;;;;3.45;2.25;;;24.00;35.50;;;;;;6285323;27;80430;-68
2022/05/10 11:13:50;;;;;;;5.43;2.60;;;24.10;36.20;;;;;;6282154;27;80686;-66
2022/05/10 11:16:51;;;;;;;4.18;2.50;;;24.20;36.10;;;;;;6285325;27;80654;-68
2022/05/10 11:19:51;;;;;;;5.25;2.10;;;24.20;35.80;;;;;;6284816;27;80216;-67
2022/05/10 11:22:52;;;;;;;5.20;2.75;;;24.20;35.80;;;;;;6284695;27;81448;-67
2022/05/10 11:25:54;;;;;;;6.25;2.30;;;24.30;35.80;;;;;;6284545;27;80302;-68
2022/05/10 11:28:55;;;;;;;8.43;2.38;;;24.30;35.60;;;;;;6272911;27;80078;-67
2022/05/10 11:31:55;;;;;;;5.60;2.13;;;24.30;35.90;;;;;;6284396;27;81390;-69
2022/05/10 11:34:56;;;;;;;4.40;2.30;;;24.40;35.90;;;;;;6284533;27;81420;-67
2022/05/10 11:37:57;;;;;;;7.03;2.35;;;24.40;35.30;;;;;;6282272;27;80537;-68
2022/05/10 11:40:57;;;;;;;8.82;2.40;;;24.40;35.90;;;;;;6284518;27;80762;-67
2022/05/10 11:43:58;;;;;;;7.80;2.53;;;24.40;35.90;;;;;;6284023;27;80027;-67
2022/05/10 11:47:01;;;;;;;7.57;2.67;;;24.40;36.20;;;;;;6283231;27;80128;-67
2022/05/10 11:50:02;;;;;;;3.65;2.55;;;24.40;35.70;;;;;;6283776;27;80507;-67
2022/05/10 11:53:03;;;;;;;6.25;2.42;;;24.40;35.90;;;;;;6282056;27;81605;-67
2022/05/10 11:56:04;;;;;;;4.15;2.28;;;24.40;35.00;;;;;;6282964;27;81559;-64
2022/05/10 11:59:04;;;;;;;4.97;2.58;;;24.30;35.60;;;;;;6283739;27;80664;-67
2022/05/10 12:02:05;;;;;;;4.07;2.30;;;24.40;35.70;;;;;;6282994;27;87031;-65
2022/05/10 12:05:06;;;;;;;6.57;2.50;;;24.40;35.50;;;;;;6279881;27;80292;-67
2022/05/10 12:08:07;;;;;;;12.43;4.63;;;24.50;35.90;;;;;;6282097;27;80349;-66
2022/05/10 12:11:07;;;;;;;14.18;4.72;;;24.50;35.80;;;;;;6283633;27;80264;-66
2022/05/10 12:24:06;;;;;;;5.03;2.28;;;24.30;35.10;;;;;;6283063;27;80583;-65
2022/05/10 12:27:06;;;;;;;7.38;2.40;;;24.40;35.30;;;;;;6280848;27;81851;-64
2022/05/10 12:30:07;;;;;;;5.47;2.42;;;24.30;34.90;;;;;;6276845;27;80308;-65
2022/05/10 12:33:08;;;;;;;5.07;2.47;;;24.40;35.10;;;;;;6279454;27;80378;-65
2022/05/10 12:36:09;;;;;;;6.03;2.28;;;24.40;35.20;;;;;;6276682;27;80243;-64
2022/05/10 12:39:09;;;;;;;5.95;2.40;;;24.40;34.90;;;;;;6282971;27;81044;-64
2022/05/10 12:42:13;;;;;;;10.95;2.28;;;24.30;34.90;;;;;;6282964;27;81642;-64
2022/05/10 12:45:13;;;;;;;4.00;2.30;;;24.30;35.00;;;;;;6282845;27;80270;-66
2022/05/10 12:48:14;;;;;;;5.95;3.08;;;24.30;35.00;;;;;;6270728;27;81703;-65
2022/05/10 12:51:14;;;;;;;5.15;2.35;;;24.30;34.70;;;;;;6282241;27;80490;-65
2022/05/10 12:54:15;;;;;;;3.53;2.17;;;24.20;35.00;;;;;;6279960;27;80301;-65
2022/05/10 12:57:16;;;;;;;7.95;2.00;;;24.30;34.70;;;;;;6281438;27;81086;-65
2022/05/10 13:00:19;;;;;;;7.68;2.63;;;24.20;35.10;;;;;;6276510;27;80613;-65
2022/05/10 13:03:21;;;;;;;3.53;2.20;;;24.10;34.70;;;;;;6280254;27;81398;-65
2022/05/10 13:06:22;;;;;;;4.10;2.22;;;24.10;35.00;;;;;;6277167;27;81403;-65
2022/05/10 13:09:23;;;;;;;5.20;2.58;;;24.20;35.40;;;;;;6282086;27;81463;-65
2022/05/10 13:12:23;;;;;;;6.97;1.95;;;24.20;35.50;;;;;;6279705;27;80678;-67
2022/05/10 13:15:24;;;;;;;5.35;2.80;;;24.30;35.60;;;;;;6282020;27;80743;-66
2022/05/10 13:18:24;;;;;;;3.72;2.53;;;24.30;35.20;;;;;;6281900;27;80376;-66
2022/05/10 13:21:25;;;;;;;7.57;2.15;;;24.30;35.20;;;;;;6279454;27;80371;-66
2022/05/10 13:24:29;;;;;;;7.03;2.47;;;24.30;35.10;;;;;;6286383;27;80729;-66
2022/05/10 13:27:30;;;;;;;8.60;2.67;;;24.20;34.50;;;;;;6285411;27;80597;-64
2022/05/10 13:30:30;;;;;;;5.40;2.47;;;24.10;34.60;;;;;;6286206;27;80308;-66
2022/05/10 13:33:31;;;;;;;9.55;2.80;;;24.00;34.60;;;;;;6273994;27;87123;-66
2022/05/10 13:36:31;;;;;;;5.05;2.17;;;24.00;34.60;;;;;;6285991;27;81529;-66
2022/05/10 13:39:32;;;;;;;6.57;2.70;;;24.10;35.60;;;;;;6286299;27;80783;-67
2022/05/10 13:42:32;;;;;;;4.95;1.92;;;24.10;35.40;;;;;;6286053;27;80509;-67
2022/05/10 13:45:34;;;;;;;6.80;2.63;;;24.10;35.40;;;;;;6285992;27;80419;-66
2022/05/10 13:48:34;;;;;;;6.18;2.38;;;24.20;35.60;;;;;;6285792;27;80559;-66
2022/05/10 13:51:35;;;;;;;4.82;2.45;;;24.30;35.60;;;;;;6285548;27;80421;-66
2022/05/10 13:54:36;;;;;;;7.72;2.47;;;24.20;35.10;;;;;;6285434;27;82284;-66
2022/05/10 13:57:38;;;;;;;4.22;2.35;;;24.30;35.40;;;;;;6285521;27;80955;-67
2022/05/10 14:00:39;;;;;;;3.65;1.98;;;24.30;36.10;;;;;;6285439;27;80143;-70
2022/05/10 14:03:40;;;;;;;6.18;2.72;;;24.40;36.30;;;;;;6283951;27;82300;-62
2022/05/10 14:06:43;;;;;;;7.28;3.00;;;24.30;34.70;;;;;;6285701;27;80283;-62
2022/05/10 14:09:44;;;;;;;4.22;2.63;;;24.20;35.30;;;;;;6263130;27;81764;-63
2022/05/10 14:12:45;;;;;;;5.43;2.70;;;24.30;35.30;;;;;;6268135;27;80721;-63
2022/05/10 14:15:45;;;;;;;7.82;2.47;;;24.30;34.90;;;;;;6285398;27;80788;-63
2022/05/10 14:18:46;;;;;;;5.32;2.35;;;24.40;35.20;;;;;;6284960;27;80802;-64
2022/05/10 14:21:47;;;;;;;2.63;1.92;;;24.40;34.70;;;;;;6283603;27;80840;-66
2022/05/10 14:24:47;;;;;;;3.33;2.17;;;24.30;34.80;;;;;;6285293;27;80946;-63
2022/05/10 14:27:49;;;;;;;4.13;2.40;;;24.40;36.00;;;;;;6284991;27;80649;-64
2022/05/10 14:30:49;;;;;;;5.35;2.05;;;24.40;35.00;;;;;;6282641;27;81928;-64
2022/05/10 14:33:53;;;;;;;7.57;2.42;;;24.50;35.20;;;;;;6284740;27;80709;-64
2022/05/10 14:36:53;;;;;;;6.57;2.53;;;24.50;35.60;;;;;;6284598;27;80347;-64
2022/05/10 14:39:54;;;;;;;4.15;2.38;;;24.50;35.60;;;;;;6284492;27;81000;-63
2022/05/10 14:42:54;;;;;;;6.00;2.70;;;24.50;35.20;;;;;;6284572;27;80734;-64
2022/05/10 14:45:55;;;;;;;5.70;2.55;;;24.60;35.30;;;;;;6271036;27;80972;-63
2022/05/10 14:48:56;;;;;;;4.75;2.92;;;24.60;35.10;;;;;;6284427;27;80687;-63
2022/05/10 14:51:58;;;;;;;6.28;2.72;;;24.70;35.10;;;;;;6280195;27;81720;-62
2022/05/10 14:54:58;;;;;;;5.93;2.75;;;24.70;35.40;;;;;;6270147;27;80177;-63
2022/05/10 14:57:59;;;;;;;6.20;2.35;;;24.60;35.10;;;;;;6269448;27;80108;-62
2022/05/10 15:01:00;;;;;;;4.47;2.33;;;24.60;34.60;;;;;;6271392;27;80806;-62
2022/05/10 15:04:01;;;;;;;5.63;3.10;;;24.70;34.90;;;;;;6257824;27;80606;-63
2022/05/10 15:07:02;;;;;;;5.38;2.80;;;24.50;34.30;;;;;;6282817;27;80942;-63
2022/05/10 15:10:02;;;;;;;7.07;2.30;;;24.50;34.30;;;;;;6284721;27;80394;-64
2022/05/10 15:13:03;;;;;;;5.93;2.38;;;24.60;34.50;;;;;;6283747;27;81943;-64
2022/05/10 15:16:04;;;;;;;3.38;2.25;;;24.50;34.20;;;;;;6282902;27;81386;-64
2022/05/10 15:19:05;;;;;;;2.85;2.15;;;24.50;34.30;;;;;;6283973;27;80615;-65
2022/05/10 15:22:06;;;;;;;9.38;2.38;;;24.60;34.30;;;;;;6284101;27;81197;-64
2022/05/10 15:25:06;;;;;;;6.20;2.63;;;24.60;34.60;;;;;;6283791;27;81835;-65
2022/05/10 15:28:07;;;;;;;5.45;2.38;;;24.50;33.40;;;;;;6269322;27;80360;-65
2022/05/10 15:31:08;;;;;;;6.00;2.83;;;24.50;33.60;;;;;;6275953;27;81053;-64
2022/05/10 15:34:43;;;;;;;3.47;2.47;;;24.60;33.30;;;;;;6264891;27;80458;-64
2022/05/10 15:37:30;;;;;;;6.43;2.42;;;24.60;33.30;;;;;;6266998;27;80575;-64
2022/05/10 15:40:30;;;;;;;5.25;2.20;;;24.60;33.80;;;;;;6265340;27;81419;-64
2022/05/10 15:43:31;;;;;;;4.75;2.60;;;24.60;33.70;;;;;;6269616;27;83198;-64
2022/05/10 15:46:31;;;;;;;3.33;2.05;;;24.60;33.50;;;;;;6283407;27;80242;-64
2022/05/10 15:49:32;;;;;;;13.45;1.90;;;24.60;33.60;;;;;;6282391;27;80780;-63
2022/05/10 15:52:32;;;;;;;6.28;2.20;;;24.60;33.70;;;;;;6283320;27;80407;-62
2022/05/10 15:55:34;;;;;;;8.02;3.00;;;24.60;33.90;;;;;;6281317;27;80626;-64
2022/05/10 15:58:35;;;;;;;5.05;2.38;;;24.60;34.30;;;;;;6275703;27;80378;-63
2022/05/10 16:01:36;;;;;;;3.40;2.03;;;24.60;34.50;;;;;;6280585;27;80681;-65
2022/05/10 16:04:36;;;;;;;8.52;2.10;;;24.70;34.90;;;;;;6277160;27;80312;-65
2022/05/10 16:07:37;;;;;;;2.90;2.00;;;24.70;35.40;;;;;;6290072;27;80525;-64
2022/05/10 16:10:37;;;;;;;5.63;2.05;;;24.70;35.30;;;;;;6283227;27;80445;-65